FranceFixed distance
Festival des Templiers - Endurance Trail
17–18 Oct2025
Distance
100km
Finishers
1,2821,128 men154 women
Winning time
9:37:30h
Median pace
5.73km/h
Pace distribution
1,282 finishers · 4.09–10.39 km/h · mean 5.93
Every finisher ran the same 100 km course, so these paces are directly comparable.
Histogram of finisher pace. 1,282 finishers ranged from 4.09 to 10.39 kilometres per hour, with a mean of 5.93 and a median of 5.73. The busiest band is 5.5 to 6.0 kilometres per hour, with 263 finishers.
Results
Ranks 201–250 of 1,282
| Rank | Runner | Time | Pace | Cat. | Placing |
|---|---|---|---|---|---|
| 201 | Kurek, SebastienFranceMan RC Arras | 14:19:56h | 6.98 | M35 | 180th M · 48th M35 |
| 202 | Rigot, Marc-AntoineFranceMan | 14:20:22h | 6.97 | M40 | 181st M · 19th M40 |
| 203 | Sellier, GaelFranceMan | 14:20:23h | 6.97 | M35 | 182nd M · 49th M35 |
| 204 | Guinard, Paul-EmmanuelFranceMan | 14:20:27h | 6.97 | M23 | 183rd M · 94th M23 |
| 205 | Gaillard, PaulFranceMan | 14:20:39h | 6.97 | M35 | 184th M · 50th M35 |
| 206 | Rol, ThomasFranceMan Championnet Sports | 14:21:08h | 6.97 | M23 | 185th M · 95th M23 |
| 206 | Vidal, AubinFranceMan | 14:21:08h | 6.97 | M23 | 185th M · 95th M23 |
| 208 | de Lorgeril, RenaudFranceMan | 14:21:09h | 6.97 | M23 | 187th M · 97th M23 |
| 209 | Fouche, DonatienFranceMan | 14:21:10h | 6.97 | M23 | 188th M · 98th M23 |
| 210 | Leplat, LoicFranceMan | 14:21:19h | 6.97 | M23 | 189th M · 99th M23 |
| 211 | Grenier, FlorentFranceMan | 14:22:53h | 6.95 | M23 | 190th M · 100th M23 |
| 212 | Bouyer, FabienFranceMan | 14:23:17h | 6.95 | M50 | 191st M · 3rd M50 |
| 213 | Blondeau, VincentFranceMan | 14:23:21h | 6.95 | M35 | 192nd M · 51st M35 |
| 214 | Boyer, AdrienFranceMan | 14:23:31h | 6.95 | M23 | 193rd M · 101st M23 |
| 215 | Gregoire, AlexandreFranceMan | 14:23:58h | 6.95 | M23 | 194th M · 102nd M23 |
| 216 | Piette, AmauryFranceMan | 14:24:42h | 6.94 | M23 | 195th M · 103rd M23 |
| 217 | Cariou, ErwannFranceMan | 14:25:18h | 6.93 | M35 | 196th M · 52nd M35 |
| 218 | Lombard-Platet, RenanFranceMan | 14:25:43h | 6.93 | M23 | 197th M · 104th M23 |
| 219 | Brewer, TessUnited StatesWoman | 14:26:59h | 6.92 | W23 | 22nd F · 13th W23 |
| 220 | Devaux, AudricFranceMan | 14:27:23h | 6.92 | M23 | 198th M · 105th M23 |
| 221 | Lafont, BriceFranceMan | 14:27:35h | 6.92 | MU23 | 199th M · 3rd MU23 |
| 222 | Desvaux, ChristopheFranceMan | 14:28:03h | 6.91 | M45 | 200th M · 16th M45 |
| 223 | Jolie, FredericFranceMan | 14:28:43h | 6.91 | M50 | 201st M · 4th M50 |
| 224 | Roux, GauthierFranceMan | 14:29:35h | 6.90 | M35 | 202nd M · 53rd M35 |
| 225 | Closier, AdrienFranceMan | 14:29:55h | 6.90 | M35 | 203rd M · 54th M35 |
| 226 | Simonnet, LaurentFranceMan | 14:30:24h | 6.89 | M35 | 204th M · 55th M35 |
| 227 | Dupont, LucieFranceWoman Cadence Runners | 14:30:37h | 6.89 | W23 | 23rd F · 14th W23 |
| 227 | Salvo, YannFranceMan Zoom Volt Runners | 14:30:37h | 6.89 | M23 | 205th M · 106th M23 |
| 229 | Darbas, ArnaudFranceMan | 14:30:39h | 6.89 | M23 | 206th M · 107th M23 |
| 230 | Giraudet, QuentinFranceMan | 14:32:03h | 6.88 | M23 | 207th M · 108th M23 |
| 231 | Blanchet, AurelienFranceMan | 14:32:04h | 6.88 | M23 | 208th M · 109th M23 |
| 232 | Gallego, FlorentFranceMan | 14:33:10h | 6.87 | M35 | 209th M · 56th M35 |
| 233 | Losq, GregoireFranceMan | 14:33:27h | 6.87 | M23 | 210th M · 110th M23 |
| 234 | Menetrier, JulienFranceMan | 14:35:31h | 6.85 | M40 | 211th M · 20th M40 |
| 235 | Vivien, DavidFranceMan | 14:37:07h | 6.84 | M50 | 212th M · 5th M50 |
| 236 | Lamouroux, FelixFranceMan | 14:37:41h | 6.84 | M23 | 213th M · 111th M23 |
| 237 | Godineau, SebastienFranceMan RCN - S/L RCN Loire Di... | 14:38:35h | 6.83 | M50 | 214th M · 6th M50 |
| 238 | Guibbal, ChristopheFranceMan | 14:38:36h | 6.83 | M50 | 215th M · 7th M50 |
| 239 | Lousplaas, MelanieFranceWoman | 14:39:41h | 6.82 | W23 | 24th F · 15th W23 |
| 240 | Dourthe, GregoryFranceMan | 14:39:44h | 6.82 | M35 | 216th M · 57th M35 |
| 241 | Jolivet, LouiseFranceWoman | 14:40:05h | 6.82 | W35 | 25th F · 6th W35 |
| 242 | Chenu, TheoFranceMan AL Echirolles | 14:41:03h | 6.81 | M23 | 217th M · 112th M23 |
| 243 | Tulsa, LoicFranceMan | 14:41:42h | 6.80 | M35 | 218th M · 58th M35 |
| 244 | Francois, HugoFranceMan | 14:42:05h | 6.80 | M35 | 219th M · 59th M35 |
| 245 | Cocoual, TheoFranceMan | 14:42:25h | 6.80 | MU23 | 220th M · 4th MU23 |
| 246 | Peytavin, LaurentFranceMan | 14:42:31h | 6.80 | M23 | 221st M · 113th M23 |
| 247 | Bigourdan, LouisFranceMan | 14:43:00h | 6.79 | M40 | 222nd M · 21st M40 |
| 248 | Puissant, GabrielFranceMan | 14:43:09h | 6.79 | M40 | 223rd M · 22nd M40 |
| 249 | Le Helley, MickaelFranceMan | 14:43:10h | 6.79 | M45 | 224th M · 17th M45 |
| 250 | Coulomb, MelvinFranceMan | 14:43:25h | 6.79 | M23 | 225th M · 114th M23 |
- 201Kurek, SebastienFranceManRC Arras180th M · 48th M35Time14:19:56hPace6.98Cat.M35
- 202Rigot, Marc-AntoineFranceMan181st M · 19th M40Time14:20:22hPace6.97Cat.M40
- 203Sellier, GaelFranceMan182nd M · 49th M35Time14:20:23hPace6.97Cat.M35
- 204Guinard, Paul-EmmanuelFranceMan183rd M · 94th M23Time14:20:27hPace6.97Cat.M23
- 205Gaillard, PaulFranceMan184th M · 50th M35Time14:20:39hPace6.97Cat.M35
- 206Rol, ThomasFranceManChampionnet Sports185th M · 95th M23Time14:21:08hPace6.97Cat.M23
- 206Vidal, AubinFranceMan185th M · 95th M23Time14:21:08hPace6.97Cat.M23
- 208de Lorgeril, RenaudFranceMan187th M · 97th M23Time14:21:09hPace6.97Cat.M23
- 209Fouche, DonatienFranceMan188th M · 98th M23Time14:21:10hPace6.97Cat.M23
- 210Leplat, LoicFranceMan189th M · 99th M23Time14:21:19hPace6.97Cat.M23
- 211Grenier, FlorentFranceMan190th M · 100th M23Time14:22:53hPace6.95Cat.M23
- 212Bouyer, FabienFranceMan191st M · 3rd M50Time14:23:17hPace6.95Cat.M50
- 213Blondeau, VincentFranceMan192nd M · 51st M35Time14:23:21hPace6.95Cat.M35
- 214Boyer, AdrienFranceMan193rd M · 101st M23Time14:23:31hPace6.95Cat.M23
- 215Gregoire, AlexandreFranceMan194th M · 102nd M23Time14:23:58hPace6.95Cat.M23
- 216Piette, AmauryFranceMan195th M · 103rd M23Time14:24:42hPace6.94Cat.M23
- 217Cariou, ErwannFranceMan196th M · 52nd M35Time14:25:18hPace6.93Cat.M35
- 218Lombard-Platet, RenanFranceMan197th M · 104th M23Time14:25:43hPace6.93Cat.M23
- 219Brewer, TessUnited StatesWoman22nd F · 13th W23Time14:26:59hPace6.92Cat.W23
- 220Devaux, AudricFranceMan198th M · 105th M23Time14:27:23hPace6.92Cat.M23
- 221Lafont, BriceFranceMan199th M · 3rd MU23Time14:27:35hPace6.92Cat.MU23
- 222Desvaux, ChristopheFranceMan200th M · 16th M45Time14:28:03hPace6.91Cat.M45
- 223Jolie, FredericFranceMan201st M · 4th M50Time14:28:43hPace6.91Cat.M50
- 224Roux, GauthierFranceMan202nd M · 53rd M35Time14:29:35hPace6.90Cat.M35
- 225Closier, AdrienFranceMan203rd M · 54th M35Time14:29:55hPace6.90Cat.M35
- 226Simonnet, LaurentFranceMan204th M · 55th M35Time14:30:24hPace6.89Cat.M35
- 227Dupont, LucieFranceWomanCadence Runners23rd F · 14th W23Time14:30:37hPace6.89Cat.W23
- 227Salvo, YannFranceManZoom Volt Runners205th M · 106th M23Time14:30:37hPace6.89Cat.M23
- 229Darbas, ArnaudFranceMan206th M · 107th M23Time14:30:39hPace6.89Cat.M23
- 230Giraudet, QuentinFranceMan207th M · 108th M23Time14:32:03hPace6.88Cat.M23
- 231Blanchet, AurelienFranceMan208th M · 109th M23Time14:32:04hPace6.88Cat.M23
- 232Gallego, FlorentFranceMan209th M · 56th M35Time14:33:10hPace6.87Cat.M35
- 233Losq, GregoireFranceMan210th M · 110th M23Time14:33:27hPace6.87Cat.M23
- 234Menetrier, JulienFranceMan211th M · 20th M40Time14:35:31hPace6.85Cat.M40
- 235Vivien, DavidFranceMan212th M · 5th M50Time14:37:07hPace6.84Cat.M50
- 236Lamouroux, FelixFranceMan213th M · 111th M23Time14:37:41hPace6.84Cat.M23
- 237Godineau, SebastienFranceManRCN - S/L RCN Loire Di...214th M · 6th M50Time14:38:35hPace6.83Cat.M50
- 238Guibbal, ChristopheFranceMan215th M · 7th M50Time14:38:36hPace6.83Cat.M50
- 239Lousplaas, MelanieFranceWoman24th F · 15th W23Time14:39:41hPace6.82Cat.W23
- 240Dourthe, GregoryFranceMan216th M · 57th M35Time14:39:44hPace6.82Cat.M35
- 241Jolivet, LouiseFranceWoman25th F · 6th W35Time14:40:05hPace6.82Cat.W35
- 242Chenu, TheoFranceManAL Echirolles217th M · 112th M23Time14:41:03hPace6.81Cat.M23
- 243Tulsa, LoicFranceMan218th M · 58th M35Time14:41:42hPace6.80Cat.M35
- 244Francois, HugoFranceMan219th M · 59th M35Time14:42:05hPace6.80Cat.M35
- 245Cocoual, TheoFranceMan220th M · 4th MU23Time14:42:25hPace6.80Cat.MU23
- 246Peytavin, LaurentFranceMan221st M · 113th M23Time14:42:31hPace6.80Cat.M23
- 247Bigourdan, LouisFranceMan222nd M · 21st M40Time14:43:00hPace6.79Cat.M40
- 248Puissant, GabrielFranceMan223rd M · 22nd M40Time14:43:09hPace6.79Cat.M40
- 249Le Helley, MickaelFranceMan224th M · 17th M45Time14:43:10hPace6.79Cat.M45
- 250Coulomb, MelvinFranceMan225th M · 114th M23Time14:43:25hPace6.79Cat.M23
Showing ranks 201–250 of 1,282